sensor_id;sensor_type;location;lat;lon;timestamp;pressure;altitude;pressure_sealevel;temperature;humidity
45621;BME280;31345;51.522;10.702;2023-04-05T00:00:51;99908.94;;;-1.21;100.00
45621;BME280;31345;51.522;10.702;2023-04-05T00:03:25;99906.16;;;-0.77;100.00
45621;BME280;31345;51.522;10.702;2023-04-05T00:05:55;99908.72;;;-0.73;100.00
45621;BME280;31345;51.522;10.702;2023-04-05T00:08:28;99907.94;;;-0.90;100.00
45621;BME280;31345;51.522;10.702;2023-04-05T00:11:01;99907.13;;;-0.94;100.00
45621;BME280;31345;51.522;10.702;2023-04-05T00:13:33;99906.28;;;-0.96;100.00
45621;BME280;31345;51.522;10.702;2023-04-05T00:16:00;99907.91;;;-0.79;100.00
45621;BME280;31345;51.522;10.702;2023-04-05T00:18:33;99905.44;;;-0.98;100.00
45621;BME280;31345;51.522;10.702;2023-04-05T00:21:02;99906.09;;;-0.65;100.00
45621;BME280;31345;51.522;10.702;2023-04-05T00:23:34;99908.63;;;-0.57;100.00
45621;BME280;31345;51.522;10.702;2023-04-05T00:26:09;99901.91;;;-0.78;100.00
45621;BME280;31345;51.522;10.702;2023-04-05T00:28:45;99902.03;;;-1.02;100.00
45621;BME280;31345;51.522;10.702;2023-04-05T00:31:13;99904.59;;;-1.03;100.00
45621;BME280;31345;51.522;10.702;2023-04-05T00:33:45;99910.56;;;-1.01;100.00
45621;BME280;31345;51.522;10.702;2023-04-05T00:36:19;99904.34;;;-0.58;100.00
45621;BME280;31345;51.522;10.702;2023-04-05T00:38:53;99894.00;;;-0.52;100.00
45621;BME280;31345;51.522;10.702;2023-04-05T00:41:26;99890.53;;;-0.41;100.00
45621;BME280;31345;51.522;10.702;2023-04-05T00:43:58;99890.72;;;-0.71;100.00
45621;BME280;31345;51.522;10.702;2023-04-05T00:46:32;99895.00;;;-0.75;100.00
45621;BME280;31345;51.522;10.702;2023-04-05T00:49:05;99895.91;;;-0.79;100.00
45621;BME280;31345;51.522;10.702;2023-04-05T00:51:39;99885.69;;;-0.87;100.00
45621;BME280;31345;51.522;10.702;2023-04-05T00:54:12;99888.25;;;-0.85;100.00
45621;BME280;31345;51.522;10.702;2023-04-05T00:56:45;99884.75;;;-0.75;100.00
45621;BME280;31345;51.522;10.702;2023-04-05T00:59:18;99888.31;;;-0.98;100.00
45621;BME280;31345;51.522;10.702;2023-04-05T01:01:53;99877.28;;;-1.17;100.00
45621;BME280;31345;51.522;10.702;2023-04-05T01:04:27;99874.75;;;-1.20;100.00
45621;BME280;31345;51.522;10.702;2023-04-05T01:07:06;99876.31;;;-0.99;100.00
45621;BME280;31345;51.522;10.702;2023-04-05T01:09:41;99877.09;;;-0.84;100.00
45621;BME280;31345;51.522;10.702;2023-04-05T01:12:15;99877.97;;;-0.84;100.00
45621;BME280;31345;51.522;10.702;2023-04-05T01:14:49;99873.81;;;-1.06;100.00
45621;BME280;31345;51.522;10.702;2023-04-05T01:17:23;99868.81;;;-1.28;100.00
45621;BME280;31345;51.522;10.702;2023-04-05T01:19:59;99861.00;;;-1.08;100.00
45621;BME280;31345;51.522;10.702;2023-04-05T01:22:51;99859.44;;;-1.37;100.00
45621;BME280;31345;51.522;10.702;2023-04-05T01:25:44;99870.66;;;-1.68;100.00
45621;BME280;31345;51.522;10.702;2023-04-05T01:28:17;99876.63;;;-1.58;100.00
45621;BME280;31345;51.522;10.702;2023-04-05T01:30:56;99867.94;;;-1.30;100.00
45621;BME280;31345;51.522;10.702;2023-04-05T01:33:34;99867.13;;;-1.43;100.00
45621;BME280;31345;51.522;10.702;2023-04-05T01:36:07;99863.88;;;-1.94;100.00
45621;BME280;31345;51.522;10.702;2023-04-05T01:38:42;99870.72;;;-1.99;100.00
45621;BME280;31345;51.522;10.702;2023-04-05T01:41:12;99863.94;;;-2.14;100.00
45621;BME280;31345;51.522;10.702;2023-04-05T01:43:45;99863.91;;;-2.09;100.00
45621;BME280;31345;51.522;10.702;2023-04-05T01:46:18;99872.47;;;-2.26;100.00
45621;BME280;31345;51.522;10.702;2023-04-05T01:48:47;99863.91;;;-2.09;100.00
45621;BME280;31345;51.522;10.702;2023-04-05T01:51:14;99868.22;;;-2.22;100.00
45621;BME280;31345;51.522;10.702;2023-04-05T01:53:46;99869.91;;;-2.67;100.00
45621;BME280;31345;51.522;10.702;2023-04-05T01:56:19;99872.47;;;-2.63;100.00
45621;BME280;31345;51.522;10.702;2023-04-05T01:58:51;99875.00;;;-2.45;100.00
45621;BME280;31345;51.522;10.702;2023-04-05T02:01:20;99867.34;;;-2.34;100.00
45621;BME280;31345;51.522;10.702;2023-04-05T02:03:52;99864.75;;;-2.71;100.00
45621;BME280;31345;51.522;10.702;2023-04-05T02:06:25;99871.63;;;-2.58;100.00
45621;BME280;31345;51.522;10.702;2023-04-05T02:08:52;99869.03;;;-2.20;100.00
45621;BME280;31345;51.522;10.702;2023-04-05T02:11:24;99869.88;;;-2.03;100.00
45621;BME280;31345;51.522;10.702;2023-04-05T02:14:02;99858.81;;;-2.48;100.00
45621;BME280;31345;51.522;10.702;2023-04-05T02:16:35;99862.22;;;-2.37;100.00
45621;BME280;31345;51.522;10.702;2023-04-05T02:19:08;99857.09;;;-2.35;100.00
45621;BME280;31345;51.522;10.702;2023-04-05T02:21:40;99861.34;;;-2.11;100.00
45621;BME280;31345;51.522;10.702;2023-04-05T02:24:13;99857.09;;;-2.07;100.00
45621;BME280;31345;51.522;10.702;2023-04-05T02:26:45;99861.38;;;-2.48;100.00
45621;BME280;31345;51.522;10.702;2023-04-05T02:29:18;99872.47;;;-2.54;100.00
45621;BME280;31345;51.522;10.702;2023-04-05T02:31:51;99869.03;;;-2.23;100.00
45621;BME280;31345;51.522;10.702;2023-04-05T02:34:24;99863.91;;;-2.39;100.00
45621;BME280;31345;51.522;10.702;2023-04-05T02:36:57;99861.38;;;-2.30;100.00
45621;BME280;31345;51.522;10.702;2023-04-05T02:39:29;99857.09;;;-2.51;100.00
45621;BME280;31345;51.522;10.702;2023-04-05T02:41:57;99861.34;;;-2.83;100.00
45621;BME280;31345;51.522;10.702;2023-04-05T02:44:29;99861.38;;;-2.58;100.00
45621;BME280;31345;51.522;10.702;2023-04-05T02:47:03;99853.66;;;-2.69;100.00
45621;BME280;31345;51.522;10.702;2023-04-05T02:49:32;99849.41;;;-2.71;100.00
45621;BME280;31345;51.522;10.702;2023-04-05T02:52:07;99850.28;;;-2.58;100.00
45621;BME280;31345;51.522;10.702;2023-04-05T02:54:40;99842.59;;;-2.55;100.00
45621;BME280;31345;51.522;10.702;2023-04-05T02:57:13;99844.31;;;-2.53;100.00
45621;BME280;31345;51.522;10.702;2023-04-05T02:59:55;99846.03;;;-2.42;100.00
45621;BME280;31345;51.522;10.702;2023-04-05T03:02:28;99844.28;;;-2.57;100.00
45621;BME280;31345;51.522;10.702;2023-04-05T03:04:56;99850.25;;;-2.74;100.00
45621;BME280;31345;51.522;10.702;2023-04-05T03:07:34;99852.84;;;-2.69;100.00
45621;BME280;31345;51.522;10.702;2023-04-05T03:10:12;99856.22;;;-2.80;100.00
45621;BME280;31345;51.522;10.702;2023-04-05T03:12:55;99859.63;;;-2.73;100.00
45621;BME280;31345;51.522;10.702;2023-04-05T03:15:31;99854.53;;;-2.73;100.00
45621;BME280;31345;51.522;10.702;2023-04-05T03:18:09;99858.81;;;-2.59;100.00
45621;BME280;31345;51.522;10.702;2023-04-05T03:20:43;99857.94;;;-2.63;100.00
45621;BME280;31345;51.522;10.702;2023-04-05T03:23:17;99857.09;;;-2.59;100.00
45621;BME280;31345;51.522;10.702;2023-04-05T03:25:53;99855.41;;;-2.40;100.00
45621;BME280;31345;51.522;10.702;2023-04-05T03:28:28;99850.25;;;-2.51;100.00
45621;BME280;31345;51.522;10.702;2023-04-05T03:31:01;99850.28;;;-2.54;100.00
45621;BME280;31345;51.522;10.702;2023-04-05T03:33:35;99851.97;;;-2.54;100.00
45621;BME280;31345;51.522;10.702;2023-04-05T03:36:08;99846.84;;;-2.42;100.00
45621;BME280;31345;51.522;10.702;2023-04-05T03:38:43;99840.03;;;-2.30;100.00
45621;BME280;31345;51.522;10.702;2023-04-05T03:41:25;99840.91;;;-2.44;100.00
45621;BME280;31345;51.522;10.702;2023-04-05T03:43:58;99840.91;;;-2.45;100.00
45621;BME280;31345;51.522;10.702;2023-04-05T03:46:25;99837.47;;;-2.44;100.00
45621;BME280;31345;51.522;10.702;2023-04-05T03:48:59;99828.06;;;-2.36;100.00
45621;BME280;31345;51.522;10.702;2023-04-05T03:51:31;99832.34;;;-2.30;100.00
45621;BME280;31345;51.522;10.702;2023-04-05T03:54:04;99833.16;;;-2.13;100.00
45621;BME280;31345;51.522;10.702;2023-04-05T03:56:38;99832.31;;;-2.10;100.00
45621;BME280;31345;51.522;10.702;2023-04-05T03:59:18;99823.78;;;-2.04;100.00
45621;BME280;31345;51.522;10.702;2023-04-05T04:01:48;99823.78;;;-2.09;100.00
45621;BME280;31345;51.522;10.702;2023-04-05T04:04:18;99825.47;;;-2.13;100.00
45621;BME280;31345;51.522;10.702;2023-04-05T04:06:52;99820.41;;;-2.31;100.00
45621;BME280;31345;51.522;10.702;2023-04-05T04:09:24;99817.81;;;-2.16;100.00
45621;BME280;31345;51.522;10.702;2023-04-05T04:11:58;99818.63;;;-2.15;100.00
45621;BME280;31345;51.522;10.702;2023-04-05T04:14:32;99816.09;;;-2.21;100.00
45621;BME280;31345;51.522;10.702;2023-04-05T04:17:08;99812.69;;;-2.25;100.00
45621;BME280;31345;51.522;10.702;2023-04-05T04:20:11;99817.81;;;-2.39;100.00
45621;BME280;31345;51.522;10.702;2023-04-05T04:23:05;99818.69;;;-2.34;100.00
45621;BME280;31345;51.522;10.702;2023-04-05T04:26:03;99816.97;;;-2.75;100.00
45621;BME280;31345;51.522;10.702;2023-04-05T04:29:02;99815.28;;;-2.58;100.00
45621;BME280;31345;51.522;10.702;2023-04-05T04:31:58;99816.13;;;-2.51;100.00
45621;BME280;31345;51.522;10.702;2023-04-05T04:35:02;99811.03;;;-2.65;100.00
45621;BME280;31345;51.522;10.702;2023-04-05T04:37:54;99813.56;;;-2.95;100.00
45621;BME280;31345;51.522;10.702;2023-04-05T04:40:44;99819.56;;;-2.69;100.00
45621;BME280;31345;51.522;10.702;2023-04-05T04:43:43;99818.69;;;-2.79;100.00
45621;BME280;31345;51.522;10.702;2023-04-05T04:46:17;99818.69;;;-2.78;100.00
45621;BME280;31345;51.522;10.702;2023-04-05T04:49:04;99824.66;;;-2.74;100.00
45621;BME280;31345;51.522;10.702;2023-04-05T04:51:36;99820.41;;;-2.70;100.00
45621;BME280;31345;51.522;10.702;2023-04-05T04:54:06;99822.09;;;-2.79;100.00
45621;BME280;31345;51.522;10.702;2023-04-05T04:56:38;99823.81;;;-2.78;100.00
45621;BME280;31345;51.522;10.702;2023-04-05T04:59:10;99822.09;;;-2.58;100.00
45621;BME280;31345;51.522;10.702;2023-04-05T05:01:43;99821.25;;;-2.67;100.00
45621;BME280;31345;51.522;10.702;2023-04-05T05:04:16;99825.53;;;-2.72;100.00
45621;BME280;31345;51.522;10.702;2023-04-05T05:06:44;99826.38;;;-2.49;100.00
45621;BME280;31345;51.522;10.702;2023-04-05T05:09:18;99828.06;;;-2.41;100.00
45621;BME280;31345;51.522;10.702;2023-04-05T05:11:55;99831.50;;;-2.42;100.00
45621;BME280;31345;51.522;10.702;2023-04-05T05:14:29;99834.03;;;-2.59;100.00
45621;BME280;31345;51.522;10.702;2023-04-05T05:17:02;99837.50;;;-2.52;100.00
45621;BME280;31345;51.522;10.702;2023-04-05T05:19:35;99833.16;;;-2.09;100.00
45621;BME280;31345;51.522;10.702;2023-04-05T05:22:07;99835.72;;;-2.25;100.00
45621;BME280;31345;51.522;10.702;2023-04-05T05:24:42;99837.47;;;-2.40;100.00
45621;BME280;31345;51.522;10.702;2023-04-05T05:27:14;99835.72;;;-2.11;100.00
45621;BME280;31345;51.522;10.702;2023-04-05T05:29:42;99836.59;;;-2.06;100.00
45621;BME280;31345;51.522;10.702;2023-04-05T05:32:14;99834.00;;;-2.12;100.00
45621;BME280;31345;51.522;10.702;2023-04-05T05:34:47;99834.00;;;-2.03;100.00
45621;BME280;31345;51.522;10.702;2023-04-05T05:37:20;99833.09;;;-1.84;100.00
45621;BME280;31345;51.522;10.702;2023-04-05T05:39:54;99829.69;;;-1.88;100.00
45621;BME280;31345;51.522;10.702;2023-04-05T05:42:27;99833.91;;;-1.71;100.00
45621;BME280;31345;51.522;10.702;2023-04-05T05:44:55;99829.59;;;-1.58;100.00
45621;BME280;31345;51.522;10.702;2023-04-05T05:47:27;99826.16;;;-1.54;100.00
45621;BME280;31345;51.522;10.702;2023-04-05T05:49:59;99832.16;;;-1.55;100.00
45621;BME280;31345;51.522;10.702;2023-04-05T05:52:32;99830.44;;;-1.56;100.00
45621;BME280;31345;51.522;10.702;2023-04-05T05:55:07;99833.78;;;-1.37;100.00
45621;BME280;31345;51.522;10.702;2023-04-05T05:57:35;99829.44;;;-1.24;100.00
45621;BME280;31345;51.522;10.702;2023-04-05T06:00:04;99826.81;;;-1.13;100.00
45621;BME280;31345;51.522;10.702;2023-04-05T06:02:37;99832.75;;;-1.10;100.00
45621;BME280;31345;51.522;10.702;2023-04-05T06:05:10;99826.66;;;-0.91;100.00
45621;BME280;31345;51.522;10.702;2023-04-05T06:07:38;99831.78;;;-0.88;100.00
45621;BME280;31345;51.522;10.702;2023-04-05T06:10:05;99832.59;;;-0.85;100.00
45621;BME280;31345;51.522;10.702;2023-04-05T06:12:39;99830.91;;;-0.86;100.00
45621;BME280;31345;51.522;10.702;2023-04-05T06:15:12;99831.72;;;-0.79;100.00
45621;BME280;31345;51.522;10.702;2023-04-05T06:17:44;99833.44;;;-0.79;100.00
45621;BME280;31345;51.522;10.702;2023-04-05T06:20:16;99827.44;;;-0.77;100.00
45621;BME280;31345;51.522;10.702;2023-04-05T06:22:44;99828.19;;;-0.65;100.00
45621;BME280;31345;51.522;10.702;2023-04-05T06:25:16;99830.69;;;-0.56;100.00
45621;BME280;31345;51.522;10.702;2023-04-05T06:27:45;99827.22;;;-0.52;100.00
45621;BME280;31345;51.522;10.702;2023-04-05T06:30:17;99828.91;;;-0.48;100.00
45621;BME280;31345;51.522;10.702;2023-04-05T06:32:50;99829.69;;;-0.41;100.00
45621;BME280;31345;51.522;10.702;2023-04-05T06:35:19;99826.28;;;-0.40;100.00
45621;BME280;31345;51.522;10.702;2023-04-05T06:37:52;99823.63;;;-0.32;100.00
45621;BME280;31345;51.522;10.702;2023-04-05T06:40:24;99823.53;;;-0.24;100.00
45621;BME280;31345;51.522;10.702;2023-04-05T06:42:58;99826.09;;;-0.21;100.00
45621;BME280;31345;51.522;10.702;2023-04-05T06:45:34;99820.03;;;-0.12;100.00
45621;BME280;31345;51.522;10.702;2023-04-05T06:48:06;99814.81;;;-0.06;100.00
45621;BME280;31345;51.522;10.702;2023-04-05T06:50:39;99817.31;;;0.00;100.00
45621;BME280;31345;51.522;10.702;2023-04-05T06:53:11;99819.91;;;-0.01;100.00
45621;BME280;31345;51.522;10.702;2023-04-05T06:55:47;99822.41;;;0.05;100.00
45621;BME280;31345;51.522;10.702;2023-04-05T06:58:21;99825.66;;;0.19;100.00
45621;BME280;31345;51.522;10.702;2023-04-05T07:00:49;99816.38;;;0.07;100.00
45621;BME280;31345;51.522;10.702;2023-04-05T07:03:22;99826.56;;;0.15;100.00
45621;BME280;31345;51.522;10.702;2023-04-05T07:05:54;99819.63;;;0.24;100.00
45621;BME280;31345;51.522;10.702;2023-04-05T07:08:30;99823.16;;;0.16;100.00
45621;BME280;31345;51.522;10.702;2023-04-05T07:11:02;99819.47;;;0.38;100.00
45621;BME280;31345;51.522;10.702;2023-04-05T07:13:31;99821.91;;;0.50;100.00
45621;BME280;31345;51.522;10.702;2023-04-05T07:16:04;99818.63;;;0.37;100.00
45621;BME280;31345;51.522;10.702;2023-04-05T07:18:36;99817.84;;;0.32;100.00
45621;BME280;31345;51.522;10.702;2023-04-05T07:21:08;99818.44;;;0.51;100.00
45621;BME280;31345;51.522;10.702;2023-04-05T07:23:41;99822.59;;;0.62;100.00
45621;BME280;31345;51.522;10.702;2023-04-05T07:26:14;99819.88;;;0.74;100.00
45621;BME280;31345;51.522;10.702;2023-04-05T07:28:48;99814.97;;;0.55;100.00
45621;BME280;31345;51.522;10.702;2023-04-05T07:31:15;99824.03;;;0.81;100.00
45621;BME280;31345;51.522;10.702;2023-04-05T07:33:42;99812.75;;;0.93;100.00
45621;BME280;31345;51.522;10.702;2023-04-05T07:36:09;99818.69;;;0.97;100.00
45621;BME280;31345;51.522;10.702;2023-04-05T07:38:42;99814.19;;;1.12;100.00
45621;BME280;31345;51.522;10.702;2023-04-05T07:41:10;99808.81;;;1.26;100.00
45621;BME280;31345;51.522;10.702;2023-04-05T07:43:42;99813.97;;;1.27;100.00
45621;BME280;31345;51.522;10.702;2023-04-05T07:46:11;99809.50;;;1.37;100.00
45621;BME280;31345;51.522;10.702;2023-04-05T07:48:45;99811.94;;;1.45;100.00
45621;BME280;31345;51.522;10.702;2023-04-05T07:51:17;99806.56;;;1.57;100.00
45621;BME280;31345;51.522;10.702;2023-04-05T07:53:45;99806.31;;;1.73;100.00
45621;BME280;31345;51.522;10.702;2023-04-05T07:56:18;99805.31;;;1.82;100.00
45621;BME280;31345;51.522;10.702;2023-04-05T07:58:51;99799.88;;;1.96;100.00
45621;BME280;31345;51.522;10.702;2023-04-05T08:01:26;99801.59;;;1.97;100.00
45621;BME280;31345;51.522;10.702;2023-04-05T08:03:58;99798.13;;;1.98;97.73
45621;BME280;31345;51.522;10.702;2023-04-05T08:06:30;99802.78;;;2.24;100.00
45621;BME280;31345;51.522;10.702;2023-04-05T08:09:03;99804.97;;;2.43;98.70
45621;BME280;31345;51.522;10.702;2023-04-05T08:11:36;99797.13;;;2.49;96.88
45621;BME280;31345;51.522;10.702;2023-04-05T08:14:09;99790.38;;;2.42;95.28
45621;BME280;31345;51.522;10.702;2023-04-05T08:16:43;99797.56;;;2.69;96.44
45621;BME280;31345;51.522;10.702;2023-04-05T08:19:15;99805.28;;;2.70;96.04
45621;BME280;31345;51.522;10.702;2023-04-05T08:21:47;99789.59;;;2.78;95.12
45621;BME280;31345;51.522;10.702;2023-04-05T08:24:20;99796.56;;;2.76;91.93
45621;BME280;31345;51.522;10.702;2023-04-05T08:26:47;99794.63;;;2.86;91.88
45621;BME280;31345;51.522;10.702;2023-04-05T08:29:20;99781.00;;;2.79;90.98
45621;BME280;31345;51.522;10.702;2023-04-05T08:31:56;99781.59;;;2.90;91.84
45621;BME280;31345;51.522;10.702;2023-04-05T08:34:29;99786.91;;;3.21;90.92
45621;BME280;31345;51.522;10.702;2023-04-05T08:36:56;99786.50;;;3.38;89.35
45621;BME280;31345;51.522;10.702;2023-04-05T08:39:30;99779.19;;;3.54;83.81
45621;BME280;31345;51.522;10.702;2023-04-05T08:42:01;99793.53;;;3.67;86.60
45621;BME280;31345;51.522;10.702;2023-04-05T08:44:35;99785.81;;;3.98;85.60
45621;BME280;31345;51.522;10.702;2023-04-05T08:47:10;99774.59;;;3.99;83.04
45621;BME280;31345;51.522;10.702;2023-04-05T08:49:45;99784.47;;;4.16;84.77
45621;BME280;31345;51.522;10.702;2023-04-05T08:52:18;99777.16;;;4.30;82.94
45621;BME280;31345;51.522;10.702;2023-04-05T08:54:46;99784.09;;;4.28;80.75
45621;BME280;31345;51.522;10.702;2023-04-05T08:57:18;99779.00;;;4.27;77.77
45621;BME280;31345;51.522;10.702;2023-04-05T08:59:49;99782.06;;;4.70;80.32
45621;BME280;31345;51.522;10.702;2023-04-05T09:02:23;99786.59;;;4.90;80.62
45621;BME280;31345;51.522;10.702;2023-04-05T09:04:56;99785.44;;;5.01;82.32
45621;BME280;31345;51.522;10.702;2023-04-05T09:07:29;99786.72;;;4.87;80.66
45621;BME280;31345;51.522;10.702;2023-04-05T09:09:57;99784.94;;;5.16;78.49
45621;BME280;31345;51.522;10.702;2023-04-05T09:12:26;99780.91;;;5.34;79.46
45621;BME280;31345;51.522;10.702;2023-04-05T09:14:59;99789.88;;;5.24;78.21
45621;BME280;31345;51.522;10.702;2023-04-05T09:17:28;99775.75;;;5.60;75.52
45621;BME280;31345;51.522;10.702;2023-04-05T09:19:57;99777.03;;;5.46;62.35
45621;BME280;31345;51.522;10.702;2023-04-05T09:22:24;99784.88;;;5.70;73.41
45621;BME280;31345;51.522;10.702;2023-04-05T09:24:52;99770.78;;;5.52;63.26
45621;BME280;31345;51.522;10.702;2023-04-05T09:27:23;99772.28;;;5.85;64.66
45621;BME280;31345;51.522;10.702;2023-04-05T09:30:00;99771.28;;;6.13;60.36
45621;BME280;31345;51.522;10.702;2023-04-05T09:32:34;99770.72;;;6.05;58.70
45621;BME280;31345;51.522;10.702;2023-04-05T09:35:03;99762.38;;;5.96;56.20
45621;BME280;31345;51.522;10.702;2023-04-05T09:37:46;99768.53;;;6.42;59.05
45621;BME280;31345;51.522;10.702;2023-04-05T09:40:21;99770.31;;;6.39;54.18
45621;BME280;31345;51.522;10.702;2023-04-05T09:42:49;99766.34;;;6.31;52.71
45621;BME280;31345;51.522;10.702;2023-04-05T09:45:25;99766.13;;;6.59;48.23
45621;BME280;31345;51.522;10.702;2023-04-05T09:48:03;99766.06;;;6.61;53.77
45621;BME280;31345;51.522;10.702;2023-04-05T09:50:36;99762.53;;;6.39;51.90
45621;BME280;31345;51.522;10.702;2023-04-05T09:53:11;99758.69;;;6.50;51.32
45621;BME280;31345;51.522;10.702;2023-04-05T09:55:46;99757.97;;;5.98;49.72
45621;BME280;31345;51.522;10.702;2023-04-05T09:58:19;99763.38;;;5.92;56.10
45621;BME280;31345;51.522;10.702;2023-04-05T10:00:53;99762.28;;;5.74;50.82
45621;BME280;31345;51.522;10.702;2023-04-05T10:03:22;99764.19;;;4.89;60.04
45621;BME280;31345;51.522;10.702;2023-04-05T10:05:56;99764.19;;;5.43;53.65
45621;BME280;31345;51.522;10.702;2023-04-05T10:08:24;99760.72;;;5.70;53.48
45621;BME280;31345;51.522;10.702;2023-04-05T10:10:57;99759.22;;;5.88;54.28
45621;BME280;31345;51.522;10.702;2023-04-05T10:13:30;99760.69;;;5.95;59.24
45621;BME280;31345;51.522;10.702;2023-04-05T10:15:58;99762.59;;;6.38;53.71
45621;BME280;31345;51.522;10.702;2023-04-05T10:18:28;99758.66;;;6.74;53.61
45621;BME280;31345;51.522;10.702;2023-04-05T10:21:10;99747.75;;;7.09;50.23
45621;BME280;31345;51.522;10.702;2023-04-05T10:23:37;99745.13;;;6.88;54.34
45621;BME280;31345;51.522;10.702;2023-04-05T10:26:14;99740.03;;;6.85;50.21
45621;BME280;31345;51.522;10.702;2023-04-05T10:28:53;99743.16;;;6.48;53.52
45621;BME280;31345;51.522;10.702;2023-04-05T10:31:30;99739.00;;;6.20;51.61
45621;BME280;31345;51.522;10.702;2023-04-05T10:34:06;99733.16;;;6.15;50.28
45621;BME280;31345;51.522;10.702;2023-04-05T10:36:41;99736.41;;;6.66;52.60
45621;BME280;31345;51.522;10.702;2023-04-05T10:39:10;99730.59;;;7.46;50.84
45621;BME280;31345;51.522;10.702;2023-04-05T10:41:39;99733.97;;;7.90;55.77
45621;BME280;31345;51.522;10.702;2023-04-05T10:44:08;99723.00;;;8.02;49.14
45621;BME280;31345;51.522;10.702;2023-04-05T10:46:41;99722.97;;;8.60;48.91
45621;BME280;31345;51.522;10.702;2023-04-05T10:49:19;99719.75;;;7.97;51.18
45621;BME280;31345;51.522;10.702;2023-04-05T10:51:47;99724.22;;;7.33;50.83
45621;BME280;31345;51.522;10.702;2023-04-05T10:54:19;99724.66;;;7.01;51.15
45621;BME280;31345;51.522;10.702;2023-04-05T10:56:52;99729.81;;;6.11;55.17
45621;BME280;31345;51.522;10.702;2023-04-05T10:59:24;99724.44;;;6.16;54.59
45621;BME280;31345;51.522;10.702;2023-04-05T11:01:57;99719.75;;;6.93;53.37
45621;BME280;31345;51.522;10.702;2023-04-05T11:04:34;99714.41;;;6.53;49.87
45621;BME280;31345;51.522;10.702;2023-04-05T11:07:10;99720.78;;;7.53;54.65
45621;BME280;31345;51.522;10.702;2023-04-05T11:09:39;99703.28;;;7.77;50.12
45621;BME280;31345;51.522;10.702;2023-04-05T11:12:17;99717.16;;;8.16;52.28
45621;BME280;31345;51.522;10.702;2023-04-05T11:14:44;99715.53;;;8.52;54.57
45621;BME280;31345;51.522;10.702;2023-04-05T11:17:23;99709.44;;;8.34;53.84
45621;BME280;31345;51.522;10.702;2023-04-05T11:19:52;99707.91;;;8.47;52.90
45621;BME280;31345;51.522;10.702;2023-04-05T11:22:24;99703.38;;;8.70;50.77
45621;BME280;31345;51.522;10.702;2023-04-05T11:24:53;99701.66;;;8.89;47.05
45621;BME280;31345;51.522;10.702;2023-04-05T11:27:28;99697.75;;;8.60;50.01
45621;BME280;31345;51.522;10.702;2023-04-05T11:30:01;99690.56;;;8.66;50.31
45621;BME280;31345;51.522;10.702;2023-04-05T11:32:37;99687.78;;;8.32;43.77
45621;BME280;31345;51.522;10.702;2023-04-05T11:35:12;99683.44;;;8.32;47.29
45621;BME280;31345;51.522;10.702;2023-04-05T11:37:53;99690.75;;;8.43;53.51
45621;BME280;31345;51.522;10.702;2023-04-05T11:40:26;99692.75;;;9.10;52.80
45621;BME280;31345;51.522;10.702;2023-04-05T11:42:58;99682.13;;;8.78;51.65
45621;BME280;31345;51.522;10.702;2023-04-05T11:45:31;99684.22;;;8.71;49.25
45621;BME280;31345;51.522;10.702;2023-04-05T11:48:04;99670.75;;;8.98;50.15
45621;BME280;31345;51.522;10.702;2023-04-05T11:50:38;99670.94;;;9.29;48.99
45621;BME280;31345;51.522;10.702;2023-04-05T11:53:13;99671.59;;;9.84;46.70
45621;BME280;31345;51.522;10.702;2023-04-05T11:55:46;99667.69;;;9.59;46.95
45621;BME280;31345;51.522;10.702;2023-04-05T11:58:16;99668.63;;;9.91;48.64
45621;BME280;31345;51.522;10.702;2023-04-05T12:00:44;99651.66;;;9.49;45.12
45621;BME280;31345;51.522;10.702;2023-04-05T12:03:17;99656.09;;;9.47;49.58
45621;BME280;31345;51.522;10.702;2023-04-05T12:05:47;99664.53;;;9.01;42.77
45621;BME280;31345;51.522;10.702;2023-04-05T12:08:21;99650.94;;;8.77;46.16
45621;BME280;31345;51.522;10.702;2023-04-05T12:10:54;99658.91;;;8.73;47.49
45621;BME280;31345;51.522;10.702;2023-04-05T12:13:27;99649.03;;;8.80;48.81
45621;BME280;31345;51.522;10.702;2023-04-05T12:16:00;99652.09;;;8.89;48.87
45621;BME280;31345;51.522;10.702;2023-04-05T12:18:34;99650.44;;;9.39;51.72
45621;BME280;31345;51.522;10.702;2023-04-05T12:21:08;99645.72;;;9.12;45.62
45621;BME280;31345;51.522;10.702;2023-04-05T12:23:40;99640.03;;;9.21;45.37
45621;BME280;31345;51.522;10.702;2023-04-05T12:26:13;99646.38;;;9.33;47.27
45621;BME280;31345;51.522;10.702;2023-04-05T12:28:48;99636.34;;;9.26;42.23
45621;BME280;31345;51.522;10.702;2023-04-05T12:31:37;99641.13;;;9.17;48.47
45621;BME280;31345;51.522;10.702;2023-04-05T12:34:10;99634.53;;;9.10;46.25
45621;BME280;31345;51.522;10.702;2023-04-05T12:36:44;99632.53;;;8.97;48.53
45621;BME280;31345;51.522;10.702;2023-04-05T12:39:20;99622.53;;;9.23;48.15
45621;BME280;31345;51.522;10.702;2023-04-05T12:41:55;99623.25;;;9.09;41.70
45621;BME280;31345;51.522;10.702;2023-04-05T12:44:28;99615.00;;;9.35;44.05
45621;BME280;31345;51.522;10.702;2023-04-05T12:47:01;99618.25;;;9.56;46.52
45621;BME280;31345;51.522;10.702;2023-04-05T12:49:34;99623.97;;;9.29;48.98
45621;BME280;31345;51.522;10.702;2023-04-05T12:52:04;99625.72;;;9.29;49.91
45621;BME280;31345;51.522;10.702;2023-04-05T12:54:37;99613.97;;;9.04;44.54
45621;BME280;31345;51.522;10.702;2023-04-05T12:57:09;99613.22;;;9.02;47.31
45621;BME280;31345;51.522;10.702;2023-04-05T12:59:44;99606.06;;;9.23;46.78
45621;BME280;31345;51.522;10.702;2023-04-05T13:02:16;99600.03;;;9.55;48.49
45621;BME280;31345;51.522;10.702;2023-04-05T13:04:49;99607.03;;;9.54;48.13
45621;BME280;31345;51.522;10.702;2023-04-05T13:07:23;99596.31;;;9.43;47.91
45621;BME280;31345;51.522;10.702;2023-04-05T13:09:51;99590.97;;;9.62;46.15
45621;BME280;31345;51.522;10.702;2023-04-05T13:12:23;99594.13;;;10.17;44.63
45621;BME280;31345;51.522;10.702;2023-04-05T13:14:56;99591.91;;;10.09;45.95
45621;BME280;31345;51.522;10.702;2023-04-05T13:17:23;99593.91;;;9.88;43.84
45621;BME280;31345;51.522;10.702;2023-04-05T13:19:56;99595.44;;;9.92;44.48